Time;durP1;ratioP1;P1;durP2;ratioP2;P2;SDS_P1;SDS_P2;PMS_P1;PMS_P2;Temp;Humidity;BMP_temperature;BMP_pressure;BME280_temperature;BME280_humidity;BME280_pressure;Samples;Min_cycle;Max_cycle;Signal;HPM_P1;HPM_P2
2022/05/13 00:00:06;;;;;;;5.88;3.30;;;20.00;99.90;;;;;;5115973;28;20051;-66
2022/05/13 00:02:32;;;;;;;8.32;2.97;;;19.90;99.90;;;;;;5115918;28;20131;-66
2022/05/13 00:04:58;;;;;;;6.55;3.28;;;19.90;99.90;;;;;;5116003;28;20023;-66
2022/05/13 00:07:23;;;;;;;5.75;3.10;;;19.90;99.90;;;;;;5116380;28;20508;-66
2022/05/13 00:10:05;;;;;;;9.00;3.03;;;19.80;99.90;;;;;;5116158;28;20102;-66
2022/05/13 00:12:34;;;;;;;5.00;2.78;;;19.80;99.90;;;;;;5117035;28;20383;-66
2022/05/13 00:15:00;;;;;;;6.13;2.80;;;19.80;99.90;;;;;;5116796;28;20024;-65
2022/05/13 00:17:27;;;;;;;3.92;2.78;;;19.80;99.90;;;;;;5115995;28;20110;-65
2022/05/13 00:19:53;;;;;;;3.88;2.92;;;19.80;99.90;;;;;;5115908;28;20058;-65
2022/05/13 00:22:19;;;;;;;10.15;3.00;;;19.80;99.90;;;;;;5116094;28;20048;-64
2022/05/13 00:24:45;;;;;;;;;;;19.80;99.90;;;;;;5114769;28;20023;-64
2022/05/13 00:27:11;;;;;;;6.38;3.08;;;19.80;99.90;;;;;;5115671;28;20276;-66
2022/05/13 00:29:37;;;;;;;7.45;2.67;;;19.80;99.90;;;;;;5115644;28;20020;-65
2022/05/13 00:32:04;;;;;;;6.22;3.10;;;19.80;99.90;;;;;;5116028;28;20023;-65
2022/05/13 00:34:29;;;;;;;6.57;2.85;;;19.70;99.90;;;;;;5119626;28;20057;-65
2022/05/13 00:36:55;;;;;;;3.67;2.38;;;19.70;99.90;;;;;;5119510;28;20023;-65
2022/05/13 00:39:20;;;;;;;4.65;2.28;;;19.70;99.90;;;;;;5116686;28;20024;-65
2022/05/13 00:41:47;;;;;;;3.83;2.42;;;19.70;99.90;;;;;;5116721;28;20016;-66
2022/05/13 00:44:14;;;;;;;4.47;2.20;;;19.60;99.90;;;;;;5115411;28;20030;-65
2022/05/13 00:46:39;;;;;;;6.13;2.45;;;19.70;99.90;;;;;;5116193;28;20523;-65
2022/05/13 00:49:09;;;;;;;6.93;2.30;;;19.70;99.90;;;;;;5115750;28;20062;-64
2022/05/13 00:51:46;;;;;;;4.75;2.17;;;19.70;99.90;;;;;;5115759;28;20468;-65
2022/05/13 00:54:15;;;;;;;4.55;2.70;;;19.70;99.90;;;;;;5115277;28;20048;-66
2022/05/13 00:56:48;;;;;;;5.03;2.35;;;19.80;99.90;;;;;;5115393;28;20464;-65
2022/05/13 00:59:18;;;;;;;4.57;1.95;;;19.70;99.90;;;;;;5115369;28;20028;-66
2022/05/13 01:01:44;;;;;;;3.72;1.98;;;19.70;99.90;;;;;;5115451;28;20016;-65
2022/05/13 01:04:10;;;;;;;;;;;19.70;99.90;;;;;;5115221;28;20083;-66
2022/05/13 01:06:38;;;;;;;2.97;1.80;;;19.70;99.90;;;;;;5115046;28;19904;-65
2022/05/13 01:09:03;;;;;;;8.00;2.22;;;19.80;99.90;;;;;;5115294;28;20028;-66
2022/05/13 01:11:33;;;;;;;6.80;2.15;;;19.70;99.90;;;;;;5115476;28;20038;-66
2022/05/13 01:14:06;;;;;;;6.68;2.50;;;19.70;99.90;;;;;;5120718;28;20030;-65
2022/05/13 01:19:18;;;;;;;3.58;2.25;;;19.70;99.90;;;;;;5125548;28;20034;-66
2022/05/13 01:21:43;;;;;;;4.05;2.00;;;19.70;99.90;;;;;;5126000;28;20043;-65
2022/05/13 01:24:09;;;;;;;4.03;1.77;;;19.70;99.90;;;;;;5126757;28;20031;-66
2022/05/13 01:26:36;;;;;;;4.35;2.20;;;19.70;99.90;;;;;;5125453;28;20023;-65
2022/05/13 01:29:02;;;;;;;6.38;2.28;;;19.70;99.90;;;;;;5123938;28;20024;-65
2022/05/13 01:31:34;;;;;;;7.55;1.88;;;19.70;99.90;;;;;;5124880;28;20027;-65
2022/05/13 01:34:02;;;;;;;7.40;2.00;;;19.70;99.90;;;;;;5125273;28;20027;-65
2022/05/13 01:36:28;;;;;;;7.22;2.03;;;19.60;99.90;;;;;;5125794;28;20031;-65
2022/05/13 01:38:55;;;;;;;;;;;19.60;99.90;;;;;;5128449;28;20023;-64
2022/05/13 01:41:21;;;;;;;5.78;1.70;;;19.60;99.90;;;;;;5127373;28;19925;-65
2022/05/13 01:43:47;;;;;;;;;;;19.60;99.90;;;;;;5128015;28;20036;-65
2022/05/13 01:46:13;;;;;;;2.55;1.65;;;19.50;99.90;;;;;;5131759;22;20015;-61
2022/05/13 01:48:39;;;;;;;;;;;19.50;99.90;;;;;;5094398;28;20132;-63
2022/05/13 01:51:05;;;;;;;4.35;1.63;;;19.50;99.90;;;;;;5093724;28;20358;-63
2022/05/13 01:53:31;;;;;;;4.35;2.00;;;19.60;99.90;;;;;;5093920;28;20533;-63
2022/05/13 01:55:57;;;;;;;;;;;19.60;99.90;;;;;;5094349;28;20027;-60
2022/05/13 01:58:24;;;;;;;4.22;2.03;;;19.50;99.90;;;;;;5095036;28;19954;-63
2022/05/13 02:00:52;;;;;;;6.20;1.75;;;19.60;99.90;;;;;;5077626;28;20085;-63
2022/05/13 02:06:03;;;;;;;4.05;2.15;;;19.50;99.90;;;;;;5093430;28;20043;-63
2022/05/13 02:08:29;;;;;;;4.60;1.60;;;19.50;99.90;;;;;;5093465;28;20063;-61
2022/05/13 02:10:54;;;;;;;;;;;19.50;99.90;;;;;;5093591;28;20344;-62
2022/05/13 02:13:20;;;;;;;5.45;1.58;;;19.40;99.90;;;;;;5093430;28;19904;-62
2022/05/13 02:15:46;;;;;;;5.35;2.03;;;19.40;99.90;;;;;;5093010;28;20048;-62
2022/05/13 02:18:12;;;;;;;3.35;2.08;;;19.40;99.90;;;;;;5093051;28;20067;-62
2022/05/13 02:20:38;;;;;;;3.83;1.80;;;19.40;99.90;;;;;;5093564;28;20023;-63
2022/05/13 02:23:04;;;;;;;6.80;2.45;;;19.40;99.90;;;;;;5092988;28;20134;-63
2022/05/13 02:25:30;;;;;;;2.80;2.00;;;19.40;99.90;;;;;;5093030;28;20472;-63
2022/05/13 02:27:59;;;;;;;3.33;1.88;;;19.30;99.90;;;;;;5093030;28;20032;-63
2022/05/13 02:30:27;;;;;;;5.03;1.98;;;19.40;99.90;;;;;;5092946;28;20512;-62
2022/05/13 02:32:53;;;;;;;5.53;2.05;;;19.50;99.90;;;;;;5093021;28;20491;-63
2022/05/13 02:35:18;;;;;;;5.10;2.35;;;19.40;99.90;;;;;;5077692;28;20024;-63
2022/05/13 02:37:44;;;;;;;4.60;2.20;;;19.30;99.90;;;;;;5097413;28;20107;-63
2022/05/13 02:40:10;;;;;;;4.07;2.33;;;19.20;99.90;;;;;;5096885;28;20089;-63
2022/05/13 02:42:36;;;;;;;4.10;2.13;;;19.20;99.90;;;;;;5097005;28;20503;-63
2022/05/13 02:45:02;;;;;;;4.65;2.33;;;19.20;99.90;;;;;;5097181;28;20032;-63
2022/05/13 02:47:27;;;;;;;5.20;2.05;;;19.20;99.90;;;;;;5096968;28;20492;-63
2022/05/13 02:52:55;;;;;;;3.97;2.20;;;19.20;99.90;;;;;;5014935;28;20181;-62
2022/05/13 02:55:21;;;;;;;4.97;2.28;;;19.20;99.90;;;;;;5015803;28;20037;-62
2022/05/13 02:57:47;;;;;;;9.25;2.42;;;19.30;99.90;;;;;;5014545;28;20108;-62
2022/05/13 03:00:13;;;;;;;5.03;2.85;;;19.30;99.90;;;;;;5014879;28;20446;-62
2022/05/13 03:02:38;;;;;;;;;;;19.40;99.90;;;;;;5015009;28;20029;-62
2022/05/13 03:05:05;;;;;;;5.78;3.00;;;19.30;99.90;;;;;;5014208;28;19933;-62
2022/05/13 03:07:30;;;;;;;5.25;3.22;;;19.20;99.90;;;;;;5014637;28;20130;-62
2022/05/13 03:09:56;;;;;;;5.72;3.63;;;19.10;99.90;;;;;;5014708;28;20108;-63
2022/05/13 03:12:22;;;;;;;10.27;3.75;;;19.00;99.90;;;;;;4998074;28;20037;-63
2022/05/13 03:14:47;;;;;;;12.65;4.75;;;19.10;99.90;;;;;;5015465;28;20033;-62
2022/05/13 03:17:13;;;;;;;5.90;4.38;;;19.00;99.90;;;;;;5016589;28;20060;-63
2022/05/13 03:19:40;;;;;;;6.25;4.40;;;19.00;99.90;;;;;;5014823;28;20030;-63
2022/05/13 03:22:06;;;;;;;8.02;4.10;;;18.90;99.90;;;;;;5014185;28;20030;-63
2022/05/13 03:24:33;;;;;;;8.55;4.70;;;18.90;99.90;;;;;;5014058;28;20202;-63
2022/05/13 03:26:58;;;;;;;;;;;18.90;99.90;;;;;;5059740;28;20073;-63
2022/05/13 03:29:25;;;;;;;7.70;5.57;;;18.90;99.90;;;;;;5096029;28;19964;-63
2022/05/13 03:31:50;;;;;;;7.72;5.20;;;19.00;99.90;;;;;;5095976;28;20032;-63
2022/05/13 03:34:16;;;;;;;7.43;5.68;;;18.90;99.90;;;;;;5095974;28;20051;-63
2022/05/13 03:36:42;;;;;;;10.50;6.32;;;18.90;99.90;;;;;;5095690;28;20035;-63
2022/05/13 03:39:08;;;;;;;8.63;5.72;;;18.80;99.90;;;;;;5095879;28;20369;-62
2022/05/13 03:41:33;;;;;;;9.48;6.28;;;18.80;99.90;;;;;;5096039;28;20036;-61
2022/05/13 03:43:59;;;;;;;8.38;6.25;;;18.90;99.90;;;;;;5095780;28;20099;-61
2022/05/13 03:46:25;;;;;;;10.07;6.13;;;19.00;99.90;;;;;;5095026;28;20068;-62
2022/05/13 03:48:50;;;;;;;9.07;5.30;;;18.90;99.90;;;;;;5095958;28;20035;-63
2022/05/13 03:51:16;;;;;;;7.38;5.05;;;18.80;99.90;;;;;;5077581;28;20028;-63
2022/05/13 03:53:42;;;;;;;8.10;5.15;;;18.60;99.90;;;;;;5096027;28;20483;-62
2022/05/13 03:56:08;;;;;;;7.57;5.30;;;18.60;99.90;;;;;;5095476;28;20060;-63
2022/05/13 03:58:34;;;;;;;8.18;4.95;;;18.60;99.90;;;;;;5095690;28;20175;-63
2022/05/13 04:01:02;;;;;;;9.23;4.78;;;18.50;99.90;;;;;;5077178;28;20024;-63
2022/05/13 04:03:28;;;;;;;10.63;4.97;;;18.60;99.90;;;;;;5077255;28;20153;-62
2022/05/13 04:08:56;;;;;;;6.65;4.45;;;18.60;99.90;;;;;;5095351;28;20043;-65
2022/05/13 04:11:25;;;;;;;5.90;4.10;;;18.50;99.90;;;;;;5095409;28;20036;-62
2022/05/13 04:16:35;;;;;;;5.47;4.07;;;18.50;99.90;;;;;;5095704;28;20504;-62
2022/05/13 04:19:03;;;;;;;6.45;3.55;;;18.50;99.90;;;;;;5076949;28;20107;-63
2022/05/13 04:21:32;;;;;;;5.72;4.00;;;18.50;99.90;;;;;;5095049;28;20110;-63
2022/05/13 04:24:00;;;;;;;8.13;4.63;;;18.50;99.90;;;;;;5095115;28;20024;-61
2022/05/13 04:26:26;;;;;;;7.15;3.67;;;18.60;99.90;;;;;;5094991;28;20035;-61
2022/05/13 04:28:52;;;;;;;;;;;18.50;99.90;;;;;;5077350;28;20035;-62
2022/05/13 04:31:21;;;;;;;8.60;4.20;;;18.60;99.90;;;;;;5094818;28;19904;-62
2022/05/13 04:33:48;;;;;;;9.27;4.07;;;18.60;99.90;;;;;;5094730;28;20024;-62
2022/05/13 04:36:14;;;;;;;7.55;3.58;;;18.60;99.90;;;;;;5094464;28;20032;-62
2022/05/13 04:38:39;;;;;;;7.75;3.38;;;18.60;99.90;;;;;;5094624;28;20030;-62
2022/05/13 04:43:51;;;;;;;6.47;3.55;;;18.60;99.90;;;;;;5095868;28;20039;-63
2022/05/13 04:46:17;;;;;;;;;;;18.60;99.90;;;;;;5095892;28;20381;-63
2022/05/13 04:48:43;;;;;;;9.07;3.67;;;18.60;99.90;;;;;;5094977;28;19995;-63
2022/05/13 04:51:10;;;;;;;7.15;2.95;;;18.60;99.90;;;;;;5094588;28;20075;-62
2022/05/13 04:53:37;;;;;;;8.38;3.78;;;18.60;99.90;;;;;;5094513;28;20392;-61
2022/05/13 04:56:05;;;;;;;8.80;3.35;;;18.70;99.90;;;;;;5093978;28;20364;-64
2022/05/13 04:58:30;;;;;;;5.88;3.03;;;18.70;99.90;;;;;;5094203;28;20111;-64
2022/05/13 05:00:58;;;;;;;6.80;3.55;;;18.60;99.90;;;;;;5094485;28;20047;-64
2022/05/13 05:03:29;;;;;;;6.90;3.28;;;18.50;99.90;;;;;;5094332;28;20020;-64
2022/05/13 05:05:57;;;;;;;6.07;3.03;;;18.50;99.90;;;;;;5094167;28;20035;-64
2022/05/13 05:08:23;;;;;;;4.53;3.22;;;18.60;99.90;;;;;;5094154;28;20123;-65
2022/05/13 05:10:48;;;;;;;9.02;4.00;;;18.60;99.90;;;;;;5075770;28;20016;-65
2022/05/13 05:13:22;;;;;;;6.47;2.88;;;18.60;99.90;;;;;;5094089;28;20038;-65
2022/05/13 05:15:48;;;;;;;7.00;3.03;;;18.70;99.90;;;;;;5075680;28;20166;-65
2022/05/13 05:18:15;;;;;;;7.43;3.38;;;18.70;99.90;;;;;;5093984;28;20051;-64
2022/05/13 05:20:42;;;;;;;7.90;3.20;;;18.70;99.90;;;;;;5094365;28;20047;-64
2022/05/13 05:23:16;;;;;;;5.47;3.35;;;18.70;99.90;;;;;;5094134;28;20026;-64
2022/05/13 05:25:43;;;;;;;7.18;3.08;;;18.80;99.90;;;;;;5093954;28;20059;-64
2022/05/13 05:28:09;;;;;;;8.57;4.53;;;18.70;99.90;;;;;;5093767;28;20020;-64
2022/05/13 05:30:35;;;;;;;7.40;3.05;;;18.70;99.90;;;;;;5093711;28;20024;-65
2022/05/13 05:33:01;;;;;;;6.50;3.47;;;18.60;99.90;;;;;;5093814;28;20081;-65
2022/05/13 05:35:28;;;;;;;7.97;3.28;;;18.70;99.90;;;;;;5093672;28;20032;-65
2022/05/13 05:37:54;;;;;;;8.77;3.47;;;18.80;99.90;;;;;;5093636;28;20020;-64
2022/05/13 05:40:20;;;;;;;5.50;3.30;;;18.70;99.90;;;;;;5093362;28;20023;-65
2022/05/13 05:42:48;;;;;;;4.60;2.85;;;18.60;99.90;;;;;;5075301;28;20024;-65
2022/05/13 05:45:16;;;;;;;6.53;3.33;;;18.60;99.90;;;;;;5093264;28;20051;-63
2022/05/13 05:47:42;;;;;;;7.13;3.00;;;18.60;99.90;;;;;;5093841;28;20372;-63
2022/05/13 05:50:11;;;;;;;6.85;3.10;;;18.60;99.90;;;;;;5093622;28;20130;-63
2022/05/13 05:52:36;;;;;;;5.72;3.10;;;18.60;99.90;;;;;;5093267;28;20032;-64
2022/05/13 05:58:05;;;;;;;5.57;3.53;;;18.70;99.90;;;;;;5093918;28;20337;-64
2022/05/13 06:00:33;;;;;;;8.27;3.35;;;18.70;99.90;;;;;;5093739;28;20047;-64
2022/05/13 06:03:00;;;;;;;7.57;3.47;;;18.70;99.90;;;;;;5093375;28;20380;-62
2022/05/13 06:05:26;;;;;;;9.68;3.55;;;18.70;99.90;;;;;;5093400;28;20031;-62
2022/05/13 06:07:57;;;;;;;12.60;3.38;;;18.80;99.90;;;;;;5093170;28;20032;-63
2022/05/13 06:10:24;;;;;;;9.48;3.25;;;18.90;99.90;;;;;;5093341;28;20028;-62
2022/05/13 06:12:50;;;;;;;10.77;4.18;;;18.90;99.90;;;;;;5093320;28;20452;-64
2022/05/13 06:15:16;;;;;;;7.97;3.22;;;18.90;99.90;;;;;;5092975;28;20028;-63
2022/05/13 06:17:43;;;;;;;7.43;3.75;;;19.00;99.90;;;;;;5093599;28;20035;-62
2022/05/13 06:20:10;;;;;;;5.85;3.55;;;18.90;99.90;;;;;;5093690;28;20044;-61
2022/05/13 06:22:35;;;;;;;;;;;18.90;99.90;;;;;;5093881;28;20032;-62
2022/05/13 06:25:02;;;;;;;7.22;3.35;;;18.90;99.90;;;;;;5093222;28;19949;-63
2022/05/13 06:27:28;;;;;;;7.30;3.70;;;19.00;99.90;;;;;;5093100;28;20107;-62
2022/05/13 06:29:53;;;;;;;7.40;3.60;;;19.00;99.90;;;;;;5093026;28;20056;-62
2022/05/13 06:32:19;;;;;;;9.27;3.40;;;19.00;99.90;;;;;;5092985;28;20081;-62
2022/05/13 06:34:44;;;;;;;7.40;3.00;;;19.00;99.90;;;;;;5092863;28;20115;-63
2022/05/13 06:37:10;;;;;;;12.52;3.10;;;19.00;99.90;;;;;;5092514;28;20032;-62
2022/05/13 06:39:36;;;;;;;5.70;3.20;;;18.90;99.90;;;;;;5093039;28;20104;-64
2022/05/13 06:42:02;;;;;;;6.40;3.30;;;19.00;99.90;;;;;;5074482;28;20024;-62
2022/05/13 06:44:27;;;;;;;10.15;3.05;;;19.00;99.90;;;;;;5092911;28;20027;-62
2022/05/13 06:46:53;;;;;;;9.40;3.67;;;19.00;99.90;;;;;;5092899;28;20044;-62
2022/05/13 06:49:18;;;;;;;10.90;4.05;;;19.00;99.90;;;;;;5092881;28;20036;-62
2022/05/13 06:51:44;;;;;;;10.68;4.65;;;19.00;99.90;;;;;;5092505;28;20111;-63
2022/05/13 06:54:11;;;;;;;6.38;3.15;;;19.00;99.90;;;;;;5092916;28;20059;-62
2022/05/13 06:56:41;;;;;;;12.27;3.25;;;19.00;99.90;;;;;;5092431;28;20047;-64
2022/05/13 06:59:07;;;;;;;7.97;3.35;;;19.10;99.90;;;;;;5092974;28;20073;-62
2022/05/13 07:01:32;;;;;;;5.95;3.25;;;19.10;99.90;;;;;;5074972;28;20028;-63
2022/05/13 07:03:58;;;;;;;9.05;3.55;;;19.10;99.90;;;;;;5093095;28;20029;-63
2022/05/13 07:06:24;;;;;;;6.70;2.97;;;19.20;99.90;;;;;;5074600;28;20396;-61
2022/05/13 07:08:50;;;;;;;8.48;3.60;;;19.10;99.90;;;;;;5092221;28;20542;-63
2022/05/13 07:11:16;;;;;;;10.32;3.35;;;19.20;99.90;;;;;;5092860;28;20425;-63
2022/05/13 07:13:42;;;;;;;7.28;2.92;;;19.20;99.90;;;;;;5092518;28;20032;-64
2022/05/13 07:16:08;;;;;;;11.32;3.50;;;19.30;99.90;;;;;;5092632;28;20028;-64
2022/05/13 07:18:36;;;;;;;6.07;3.25;;;19.40;99.90;;;;;;5093210;28;20062;-61
2022/05/13 07:21:02;;;;;;;10.35;3.45;;;19.30;99.90;;;;;;5095484;28;20023;-61
2022/05/13 07:23:29;;;;;;;;;;;19.30;99.90;;;;;;5096768;28;20032;-64
2022/05/13 07:25:55;;;;;;;7.40;3.28;;;19.40;99.90;;;;;;5096438;28;19904;-62
2022/05/13 07:28:21;;;;;;;9.20;2.90;;;19.40;99.90;;;;;;5096366;28;20047;-61
2022/05/13 07:30:47;;;;;;;13.00;3.10;;;19.50;99.90;;;;;;5096160;28;20024;-62
2022/05/13 07:33:13;;;;;;;9.75;3.03;;;19.50;99.90;;;;;;5078212;28;20394;-58
2022/05/13 07:35:38;;;;;;;10.30;2.80;;;19.50;99.90;;;;;;5095757;28;20020;-63
2022/05/13 07:38:06;;;;;;;5.25;2.38;;;19.50;99.90;;;;;;5096029;28;20417;-65
2022/05/13 07:43:16;;;;;;;5.78;2.70;;;19.60;99.90;;;;;;5096158;28;20055;-64
2022/05/13 07:45:42;;;;;;;9.52;3.00;;;19.70;99.90;;;;;;5096171;28;20400;-64
2022/05/13 07:48:08;;;;;;;7.50;2.50;;;19.60;99.90;;;;;;5117568;22;20083;-65
2022/05/13 07:50:34;;;;;;;12.80;3.25;;;19.70;99.90;;;;;;5078114;28;20088;-65
2022/05/13 07:52:59;;;;;;;9.15;2.78;;;19.80;99.90;;;;;;5096275;28;20024;-66
2022/05/13 07:55:26;;;;;;;6.63;3.13;;;19.90;99.90;;;;;;5096119;28;20028;-66
2022/05/13 07:57:51;;;;;;;;;;;20.10;99.90;;;;;;5096880;28;20040;-65
2022/05/13 08:00:25;;;;;;;8.35;2.53;;;20.20;99.90;;;;;;5096164;28;20285;-66
2022/05/13 08:02:58;;;;;;;7.45;2.42;;;20.20;99.90;;;;;;5096316;28;20028;-65
2022/05/13 08:05:26;;;;;;;8.82;2.80;;;20.30;99.90;;;;;;5096314;28;20491;-65
2022/05/13 08:08:00;;;;;;;6.07;3.15;;;20.40;99.90;;;;;;5095984;28;20434;-66
2022/05/13 08:10:25;;;;;;;6.50;2.63;;;20.60;99.90;;;;;;5095884;28;20087;-65
2022/05/13 08:12:51;;;;;;;7.70;3.08;;;20.70;99.90;;;;;;5095520;28;20059;-65
2022/05/13 08:15:16;;;;;;;10.55;2.72;;;20.60;99.90;;;;;;5095942;28;20033;-65
2022/05/13 08:17:42;;;;;;;8.68;2.03;;;20.70;99.90;;;;;;5095485;28;20472;-65
2022/05/13 08:20:08;;;;;;;12.90;3.17;;;20.80;99.90;;;;;;5095661;28;20472;-65
2022/05/13 08:22:34;;;;;;;8.75;3.08;;;20.90;99.90;;;;;;5095847;28;20027;-65
2022/05/13 08:24:59;;;;;;;14.05;6.28;;;21.00;99.90;;;;;;5077094;28;20020;-65
2022/05/13 08:27:25;;;;;;;9.93;2.97;;;21.40;99.90;;;;;;5095139;28;20063;-65
2022/05/13 08:29:50;;;;;;;;;;;21.80;99.90;;;;;;5077177;28;20028;-65
2022/05/13 08:32:16;;;;;;;5.70;2.45;;;22.10;99.90;;;;;;5094967;28;19904;-64
2022/05/13 08:34:42;;;;;;;8.15;2.88;;;22.20;98.10;;;;;;5076506;28;20031;-66
2022/05/13 08:37:07;;;;;;;6.70;2.30;;;22.40;97.80;;;;;;5078141;28;20123;-66
2022/05/13 08:39:33;;;;;;;;;;;22.80;97.50;;;;;;5077801;28;20024;-64
2022/05/13 08:42:17;;;;;;;11.98;2.88;;;24.30;96.00;;;;;;5094910;28;19904;-68
2022/05/13 08:44:43;;;;;;;9.70;2.90;;;25.60;93.40;;;;;;5094849;28;20073;-67
2022/05/13 08:47:25;;;;;;;;;;;25.10;91.50;;;;;;5095020;28;20043;-67
2022/05/13 08:49:54;;;;;;;5.90;1.90;;;24.50;91.70;;;;;;5094514;28;20305;-66
2022/05/13 08:55:20;;;;;;;8.73;2.00;;;23.80;92.20;;;;;;5094939;28;20032;-67
2022/05/13 08:57:49;;;;;;;8.35;2.00;;;23.30;92.00;;;;;;5094651;28;20024;-67
2022/05/13 09:00:36;;;;;;;10.25;1.95;;;23.00;92.20;;;;;;5076228;28;20154;-67
2022/05/13 09:03:13;;;;;;;7.55;1.98;;;22.60;92.70;;;;;;5076286;28;20084;-68
2022/05/13 09:06:20;;;;;;;6.07;2.00;;;23.10;92.60;;;;;;5076236;28;20023;-68
2022/05/13 09:08:46;;;;;;;8.25;2.60;;;24.00;91.60;;;;;;5068867;28;20040;-67
2022/05/13 09:11:12;;;;;;;;;;;25.10;89.80;;;;;;5095291;28;20081;-67
2022/05/13 09:14:18;;;;;;;8.13;2.78;;;24.90;88.80;;;;;;5094554;28;19904;-67
2022/05/13 09:17:26;;;;;;;5.18;1.88;;;24.70;89.10;;;;;;5070061;28;20097;-67
2022/05/13 09:20:06;;;;;;;10.50;2.58;;;24.30;89.90;;;;;;5094381;28;20032;-67
2022/05/13 09:22:45;;;;;;;4.90;2.10;;;24.00;90.40;;;;;;5094161;28;20047;-67
2022/05/13 09:25:25;;;;;;;6.13;2.58;;;24.00;90.20;;;;;;5094200;28;20119;-67
2022/05/13 09:28:13;;;;;;;5.97;1.80;;;23.80;90.10;;;;;;5094271;28;20087;-66
2022/05/13 09:30:44;;;;;;;4.10;1.80;;;23.90;89.60;;;;;;5094042;28;20023;-67
2022/05/13 09:33:31;;;;;;;6.07;1.70;;;23.60;90.00;;;;;;5075632;28;20217;-67
2022/05/13 09:36:08;;;;;;;6.85;2.00;;;23.20;89.10;;;;;;5094354;28;20028;-68
2022/05/13 09:38:53;;;;;;;4.55;1.60;;;23.00;88.80;;;;;;5075525;28;20058;-67
2022/05/13 09:41:29;;;;;;;4.50;1.45;;;22.40;86.70;;;;;;5094251;28;20099;-67
2022/05/13 09:44:03;;;;;;;7.50;1.77;;;22.60;86.70;;;;;;5075175;28;20505;-68
2022/05/13 09:46:42;;;;;;;6.32;1.60;;;22.80;86.30;;;;;;5093483;28;20032;-68
2022/05/13 09:49:23;;;;;;;5.18;2.05;;;23.40;84.90;;;;;;5094197;28;20463;-68
2022/05/13 09:51:58;;;;;;;4.55;1.48;;;24.40;81.70;;;;;;5093683;28;20024;-68
2022/05/13 09:54:33;;;;;;;5.78;1.55;;;26.10;78.20;;;;;;5093526;28;20035;-67
2022/05/13 09:57:10;;;;;;;5.82;1.92;;;27.90;75.20;;;;;;5093542;28;20101;-67
2022/05/13 09:59:42;;;;;;;4.55;1.92;;;29.50;69.40;;;;;;5075116;28;20028;-67
2022/05/13 10:02:28;;;;;;;6.18;1.55;;;30.70;67.80;;;;;;5075157;28;20429;-67
2022/05/13 10:05:10;;;;;;;9.57;2.03;;;31.80;63.30;;;;;;5094683;28;20028;-67
2022/05/13 10:07:45;;;;;;;7.18;1.70;;;31.70;59.20;;;;;;5093874;28;20469;-67
2022/05/13 10:15:56;;;;;;;7.30;1.67;;;33.10;55.20;;;;;;5093778;28;20545;-71
2022/05/13 10:18:29;;;;;;;14.73;2.13;;;32.10;55.30;;;;;;5092987;28;20081;-71
2022/05/13 10:21:05;;;;;;;5.00;1.30;;;32.40;55.40;;;;;;5075476;28;20341;-68
2022/05/13 10:23:50;;;;;;;6.38;1.85;;;33.20;54.60;;;;;;5094831;28;20473;-68
2022/05/13 10:26:20;;;;;;;4.07;1.30;;;34.10;53.70;;;;;;5075188;28;20097;-67
2022/05/13 10:29:04;;;;;;;4.78;1.35;;;34.10;52.00;;;;;;5093113;28;20454;-67
2022/05/13 10:31:35;;;;;;;2.53;1.10;;;33.60;51.80;;;;;;5093012;28;20485;-68
2022/05/13 10:34:01;;;;;;;3.88;1.35;;;33.00;52.30;;;;;;5075214;28;20435;-66
2022/05/13 10:36:40;;;;;;;3.38;1.30;;;33.40;52.20;;;;;;5092885;28;20031;-67
2022/05/13 10:39:16;;;;;;;3.53;1.48;;;33.50;52.00;;;;;;5092899;28;20088;-67
2022/05/13 10:42:00;;;;;;;3.35;1.35;;;33.90;51.40;;;;;;5093045;28;20452;-67
2022/05/13 10:44:29;;;;;;;4.47;1.23;;;33.50;51.00;;;;;;5093145;28;20020;-65
2022/05/13 10:46:58;;;;;;;5.68;1.65;;;33.50;50.90;;;;;;5093201;28;20032;-66
2022/05/13 10:49:32;;;;;;;5.88;1.88;;;32.80;50.30;;;;;;5093331;28;20043;-69
2022/05/13 10:52:03;;;;;;;4.97;1.83;;;32.30;51.10;;;;;;5093010;28;20035;-70
2022/05/13 10:54:48;;;;;;;4.30;1.52;;;31.90;51.90;;;;;;5093174;28;20035;-70
2022/05/13 10:57:35;;;;;;;7.03;2.75;;;32.20;51.70;;;;;;5097085;28;20028;-69
2022/05/13 11:00:11;;;;;;;2.15;1.20;;;33.10;51.70;;;;;;5096565;28;20043;-69
2022/05/13 11:02:57;;;;;;;5.38;1.55;;;33.50;50.60;;;;;;5096534;28;20096;-70
2022/05/13 11:05:22;;;;;;;;;;;32.50;50.30;;;;;;5078842;28;20462;-69
2022/05/13 11:08:12;;;;;;;4.27;1.10;;;31.00;51.60;;;;;;5078146;28;19908;-69
2022/05/13 11:11:06;;;;;;;3.83;1.38;;;29.60;53.40;;;;;;5096486;28;20133;-69
2022/05/13 11:13:37;;;;;;;4.70;1.52;;;28.40;55.40;;;;;;5078233;28;20020;-69
2022/05/13 11:16:13;;;;;;;4.53;1.38;;;27.60;56.50;;;;;;5096930;28;20430;-69
2022/05/13 11:18:45;;;;;;;;;;;27.00;57.00;;;;;;5097042;28;20444;-70
2022/05/13 11:21:25;;;;;;;4.70;1.30;;;26.50;57.10;;;;;;5096133;28;20373;-68
2022/05/13 11:27:40;;;;;;;3.58;1.27;;;25.70;57.80;;;;;;5096017;28;20031;-69
2022/05/13 11:30:13;;;;;;;5.22;1.40;;;25.10;59.20;;;;;;5064683;28;20040;-69
2022/05/13 11:32:49;;;;;;;6.47;1.88;;;25.00;59.70;;;;;;5078059;28;20043;-70
2022/05/13 11:35:26;;;;;;;4.27;1.20;;;24.90;59.90;;;;;;5078039;28;20035;-70
2022/05/13 11:37:57;;;;;;;5.07;1.40;;;24.80;59.50;;;;;;5077804;28;20093;-68
2022/05/13 11:40:33;;;;;;;4.30;1.60;;;24.70;60.00;;;;;;5096272;28;20099;-70
2022/05/13 11:43:20;;;;;;;6.32;1.60;;;24.70;60.20;;;;;;5077969;28;20027;-69
2022/05/13 11:46:03;;;;;;;4.88;1.33;;;24.50;60.40;;;;;;5077986;28;20111;-69
2022/05/13 11:48:41;;;;;;;4.88;1.40;;;24.50;60.10;;;;;;5096278;28;20040;-69
2022/05/13 11:51:36;;;;;;;4.35;1.23;;;24.50;59.20;;;;;;5096005;28;20028;-70
2022/05/13 11:54:01;;;;;;;4.10;1.30;;;24.30;59.50;;;;;;5077618;28;20020;-69
2022/05/13 11:56:30;;;;;;;;;;;24.30;59.00;;;;;;5096196;28;20069;-69
2022/05/13 11:59:27;;;;;;;4.15;1.27;;;24.30;58.60;;;;;;5077585;28;20364;-70
2022/05/13 12:02:04;;;;;;;3.92;1.55;;;24.20;58.50;;;;;;5076138;28;20031;-69
2022/05/13 12:04:33;;;;;;;3.28;1.10;;;24.30;59.40;;;;;;5095909;28;20096;-68
2022/05/13 12:07:16;;;;;;;3.13;1.30;;;24.20;59.30;;;;;;5095511;28;20020;-67
2022/05/13 12:09:48;;;;;;;3.83;1.48;;;24.10;59.60;;;;;;5096187;28;20051;-69
2022/05/13 12:12:32;;;;;;;3.55;1.30;;;24.20;60.00;;;;;;5078046;28;20028;-68
2022/05/13 12:15:19;;;;;;;5.50;1.25;;;24.20;59.80;;;;;;5096236;28;20058;-67
2022/05/13 12:18:06;;;;;;;6.13;1.67;;;24.20;59.30;;;;;;5095728;28;20429;-68
2022/05/13 12:21:09;;;;;;;5.75;1.25;;;24.20;59.40;;;;;;5077853;28;20028;-67
2022/05/13 12:23:58;;;;;;;4.03;1.70;;;24.20;59.80;;;;;;5095754;28;20134;-68
2022/05/13 12:26:53;;;;;;;4.13;1.30;;;24.10;59.20;;;;;;5096202;28;20404;-67
2022/05/13 12:29:20;;;;;;;3.88;1.60;;;24.10;59.60;;;;;;5071239;28;20050;-67
2022/05/13 12:32:06;;;;;;;5.43;1.60;;;24.10;59.50;;;;;;5078170;28;20016;-68
2022/05/13 12:37:47;;;;;;;5.63;1.15;;;23.90;59.40;;;;;;5096534;28;20109;-67
2022/05/13 12:40:22;;;;;;;3.35;1.05;;;24.00;59.10;;;;;;5096728;28;20027;-68
2022/05/13 12:42:47;;;;;;;7.75;1.20;;;23.90;59.80;;;;;;5096908;28;20111;-67
2022/05/13 12:45:22;;;;;;;2.95;1.35;;;24.00;60.10;;;;;;5076770;28;20031;-66
2022/05/13 12:48:15;;;;;;;3.75;1.33;;;24.10;59.60;;;;;;5095356;28;20111;-67
2022/05/13 12:50:48;;;;;;;3.22;1.13;;;24.20;58.90;;;;;;5077716;28;20031;-67
2022/05/13 12:53:29;;;;;;;3.97;1.27;;;24.20;59.30;;;;;;5095742;28;20027;-65
2022/05/13 12:56:23;;;;;;;4.55;1.00;;;24.20;59.00;;;;;;5095763;28;20028;-67
2022/05/13 12:58:58;;;;;;;7.00;1.40;;;24.20;58.80;;;;;;5078065;28;20031;-67
2022/05/13 13:01:26;;;;;;;3.72;1.30;;;24.10;59.20;;;;;;5096236;28;20020;-66
2022/05/13 13:03:52;;;;;;;4.05;1.23;;;24.10;59.20;;;;;;5095229;28;20428;-67
2022/05/13 13:06:19;;;;;;;;;;;24.20;59.10;;;;;;5095128;28;20028;-67
2022/05/13 13:08:49;;;;;;;9.50;1.10;;;24.10;59.30;;;;;;5094691;28;19904;-68
2022/05/13 13:11:30;;;;;;;8.82;1.45;;;24.20;59.50;;;;;;5076316;28;20511;-68
2022/05/13 13:14:22;;;;;;;2.97;1.20;;;24.30;58.20;;;;;;5094657;28;20032;-68
2022/05/13 13:17:03;;;;;;;4.40;1.38;;;24.30;58.40;;;;;;5094716;28;20126;-68
2022/05/13 13:19:30;;;;;;;4.60;1.20;;;24.30;57.80;;;;;;5094092;28;20500;-68
2022/05/13 13:22:01;;;;;;;3.70;1.40;;;24.30;57.70;;;;;;5094545;28;20031;-69
2022/05/13 13:24:34;;;;;;;7.47;1.50;;;24.30;58.20;;;;;;5075805;28;20020;-69
2022/05/13 13:27:00;;;;;;;6.70;1.15;;;24.30;59.00;;;;;;5094583;28;20028;-68
2022/05/13 13:29:31;;;;;;;;;;;24.30;59.40;;;;;;5076338;28;20035;-68
2022/05/13 13:31:59;;;;;;;2.92;1.13;;;24.40;59.40;;;;;;5094451;28;20394;-69
2022/05/13 13:34:33;;;;;;;4.00;1.10;;;24.40;59.10;;;;;;5094215;28;20174;-69
2022/05/13 13:36:59;;;;;;;8.73;1.48;;;24.40;59.80;;;;;;5094258;28;20024;-68
2022/05/13 13:39:29;;;;;;;3.75;1.30;;;24.40;59.90;;;;;;5076423;28;20392;-68
2022/05/13 13:42:10;;;;;;;4.63;1.15;;;24.40;60.70;;;;;;5094662;28;20032;-69
2022/05/13 13:44:37;;;;;;;5.55;1.17;;;24.40;60.10;;;;;;5094798;28;20047;-68
2022/05/13 13:47:05;;;;;;;6.60;1.70;;;24.40;60.90;;;;;;5097471;22;20036;-66